Time;durP1;ratioP1;P1;durP2;ratioP2;P2;SDS_P1;SDS_P2;PMS_P1;PMS_P2;Temp;Humidity;BMP_temperature;BMP_pressure;BME280_temperature;BME280_humidity;BME280_pressure;Samples;Min_cycle;Max_cycle;Signal;HPM_P1;HPM_P2
2021/04/12 00:01:43;;;;;;;2.78;0.30;;;;;;;0.95;49.07;101949.66;5058294;28;20056;-69
2021/04/12 00:04:42;;;;;;;3.33;0.30;;;;;;;0.86;49.40;101962.38;5080673;28;20083;-67
2021/04/12 00:07:36;;;;;;;1.58;0.47;;;;;;;0.85;49.30;101960.59;5058855;28;20120;-67
2021/04/12 00:10:13;;;;;;;6.72;1.42;;;;;;;0.83;49.67;101967.44;5041321;28;20067;-68
2021/04/12 00:12:46;;;;;;;2.13;0.50;;;;;;;0.85;49.69;101971.75;5059666;28;20029;-68
2021/04/12 00:15:33;;;;;;;8.13;0.60;;;;;;;0.66;50.25;101964.56;5041394;28;20191;-67
2021/04/12 00:18:05;;;;;;;4.35;0.98;;;;;;;0.75;50.13;101975.03;5045794;28;20112;-68
2021/04/12 00:20:49;;;;;;;1.58;0.45;;;;;;;0.92;49.45;101979.59;5042770;28;20033;-68
2021/04/12 00:23:23;;;;;;;2.08;0.50;;;;;;;0.94;49.09;101981.38;5041289;28;20124;-72
2021/04/12 00:25:51;;;;;;;3.67;0.30;;;;;;;0.95;49.02;101982.22;5043234;28;20448;-67
2021/04/12 00:28:24;;;;;;;4.00;0.40;;;;;;;0.84;49.65;101980.34;5046021;28;20111;-70
2021/04/12 00:30:56;;;;;;;4.25;0.47;;;;;;;0.79;50.11;101981.09;5043104;28;20033;-70
2021/04/12 00:33:31;;;;;;;2.50;0.45;;;;;;;0.84;50.07;101984.63;5042259;28;20032;-69
2021/04/12 00:36:26;;;;;;;5.68;0.35;;;;;;;0.69;50.27;101987.78;5041086;28;20087;-71
2021/04/12 00:39:01;;;;;;;7.15;0.40;;;;;;;0.68;50.45;101984.34;5062579;28;20490;-69
2021/04/12 00:41:49;;;;;;;2.58;0.93;;;;;;;0.77;49.37;101983.66;5039241;28;20043;-69
2021/04/12 00:44:26;;;;;;;1.25;0.30;;;;;;;0.58;49.56;101990.13;5043660;28;20052;-69
2021/04/12 00:46:58;;;;;;;3.03;0.35;;;;;;;0.50;49.54;101991.69;5044049;28;20025;-69
2021/04/12 00:50:03;;;;;;;7.50;0.30;;;;;;;0.03;51.59;101989.88;5045102;28;20085;-71
2021/04/12 00:52:34;;;;;;;1.90;0.30;;;;;;;0.13;51.11;101993.50;5017947;28;20044;-70
2021/04/12 00:55:36;;;;;;;3.70;0.30;;;;;;;0.36;50.19;101998.25;5046747;28;20059;-70
2021/04/12 00:58:39;;;;;;;1.23;0.30;;;;;;;0.17;50.70;101994.47;5044120;28;20331;-66
2021/04/12 01:01:10;;;;;;;0.98;0.20;;;;;;;0.22;50.19;101992.84;5040082;28;20498;-69
2021/04/12 01:03:36;;;;;;;4.43;0.13;;;;;;;0.22;50.10;101988.56;5026211;28;20398;-70
2021/04/12 01:06:12;;;;;;;2.38;0.10;;;;;;;0.20;50.01;101995.38;5027056;28;20417;-71
2021/04/12 01:08:48;;;;;;;2.78;1.08;;;;;;;0.15;50.38;101997.00;5044033;28;20359;-71
2021/04/12 01:11:48;;;;;;;1.02;0.20;;;;;;;0.23;50.30;101985.16;5042676;28;20146;-69
2021/04/12 01:14:45;;;;;;;3.38;0.20;;;;;;;0.32;50.64;101988.75;5040332;28;20261;-69
2021/04/12 01:17:31;;;;;;;1.75;0.17;;;;;;;0.50;50.27;101989.09;5039961;28;20029;-70
2021/04/12 01:20:22;;;;;;;5.05;0.30;;;;;;;0.59;50.03;101997.03;5041068;28;20025;-70
2021/04/12 01:23:06;;;;;;;4.13;0.63;;;;;;;0.27;50.49;102004.94;5041465;28;20576;-70
2021/04/12 01:25:56;;;;;;;0.93;0.30;;;;;;;0.59;49.93;102009.00;5039041;28;20037;-70
2021/04/12 01:28:21;;;;;;;1.42;0.10;;;;;;;0.64;49.68;102003.13;5040701;28;20063;-68
2021/04/12 01:31:29;;;;;;;6.15;0.30;;;;;;;0.57;49.58;102005.53;5041924;28;20032;-70
2021/04/12 01:34:19;;;;;;;2.45;0.55;;;;;;;0.45;49.97;102011.31;5041743;28;20029;-67
2021/04/12 01:37:22;;;;;;;1.63;0.25;;;;;;;0.58;49.80;102013.28;5056655;28;20047;-70
2021/04/12 01:40:09;;;;;;;2.05;0.45;;;;;;;0.61;50.25;102007.34;5041638;28;20036;-69
2021/04/12 01:42:53;;;;;;;3.55;0.10;;;;;;;0.69;50.20;102011.78;5042253;28;20057;-67
2021/04/12 01:45:30;;;;;;;0.60;0.50;;;;;;;0.78;49.91;102017.97;5037140;28;20068;-67
2021/04/12 01:48:27;;;;;;;2.05;0.55;;;;;;;0.82;50.02;102017.19;5041625;28;20489;-68
2021/04/12 01:51:08;;;;;;;4.13;0.40;;;;;;;0.90;49.79;102023.31;5035827;28;20049;-69
2021/04/12 01:53:51;;;;;;;3.08;0.30;;;;;;;0.99;49.86;102026.09;5040138;28;20057;-70
2021/04/12 01:56:40;;;;;;;1.00;0.20;;;;;;;1.02;49.73;102014.97;5044123;28;20043;-70
2021/04/12 01:59:18;;;;;;;3.03;0.20;;;;;;;1.14;49.43;102024.63;5042033;28;20037;-70
2021/04/12 02:02:21;;;;;;;1.70;0.30;;;;;;;1.21;49.14;102029.03;5038905;28;20331;-70
2021/04/12 02:05:02;;;;;;;1.92;0.52;;;;;;;1.23;48.96;102025.66;5038930;28;20033;-70
2021/04/12 02:07:37;;;;;;;1.23;0.50;;;;;;;1.13;48.81;102025.44;5041054;28;20160;-71
2021/04/12 02:10:22;;;;;;;3.13;0.20;;;;;;;1.02;48.83;102036.44;5040692;28;20102;-70
2021/04/12 02:13:15;;;;;;;7.18;0.52;;;;;;;0.69;49.14;102037.53;5040615;28;20029;-69
2021/04/12 02:15:40;;;;;;;1.20;0.20;;;;;;;0.60;49.29;102039.06;5040569;28;20033;-70
2021/04/12 02:18:36;;;;;;;2.33;0.43;;;;;;;0.49;49.36;102036.25;5042573;28;20140;-71
2021/04/12 02:21:46;;;;;;;1.95;0.30;;;;;;;0.42;49.54;102036.97;5042266;28;20029;-69
2021/04/12 02:24:27;;;;;;;5.10;0.20;;;;;;;0.24;50.45;102042.59;5043443;28;20112;-71
2021/04/12 02:26:57;;;;;;;6.10;0.28;;;;;;;0.34;49.89;102043.66;5041720;28;22308;-70
2021/04/12 02:29:31;;;;;;;0.55;0.17;;;;;;;0.35;49.41;102040.25;5042763;28;20367;-69
2021/04/12 02:32:27;;;;;;;0.22;0.10;;;;;;;0.27;49.46;102038.38;5039893;28;20268;-70
2021/04/12 02:35:12;;;;;;;5.60;0.30;;;;;;;0.19;49.81;102039.94;5042259;28;20040;-72
2021/04/12 02:38:15;;;;;;;1.40;0.28;;;;;;;0.18;49.73;102045.88;5041115;28;20086;-70
2021/04/12 02:40:58;;;;;;;4.72;0.30;;;;;;;0.12;49.83;102038.03;5039429;28;20056;-70
2021/04/12 02:43:39;;;;;;;1.20;0.45;;;;;;;0.03;49.97;102049.00;5039105;28;20029;-70
2021/04/12 02:46:32;;;;;;;7.60;0.35;;;;;;;-0.06;50.23;102047.91;5041459;28;20051;-72
2021/04/12 02:49:10;;;;;;;1.13;0.10;;;;;;;0.00;49.99;102048.91;5039102;28;20222;-71
2021/04/12 02:51:41;;;;;;;5.57;0.38;;;;;;;-0.04;49.78;102056.53;5040837;28;20072;-71
2021/04/12 02:54:25;;;;;;;0.32;0.10;;;;;;;0.04;49.36;102060.16;5039309;28;20413;-71
2021/04/12 02:57:18;;;;;;;5.82;0.40;;;;;;;0.03;49.63;102058.41;5042090;28;20068;-68
2021/04/12 02:59:54;;;;;;;6.55;0.73;;;;;;;-0.21;49.79;102059.59;5040930;28;20048;-72
2021/04/12 03:02:38;;;;;;;3.38;0.45;;;;;;;-0.26;50.81;102061.19;5040446;28;20079;-72
2021/04/12 03:05:37;;;;;;;3.60;0.52;;;;;;;-0.27;50.49;102059.44;5039573;28;20120;-68
2021/04/12 03:08:24;;;;;;;0.50;0.10;;;;;;;-0.26;50.25;102056.03;5039298;28;20385;-69
2021/04/12 03:10:58;;;;;;;1.75;0.45;;;;;;;-0.21;49.92;102064.72;5073470;28;20036;-72
2021/04/12 03:14:00;;;;;;;7.88;0.40;;;;;;;-0.28;50.32;102062.84;5041778;28;20052;-68
2021/04/12 03:16:54;;;;;;;2.85;0.28;;;;;;;-0.30;50.35;102061.94;5041950;28;20317;-71
2021/04/12 03:19:57;;;;;;;2.72;0.20;;;;;;;-0.28;50.09;102064.53;5039813;28;20040;-69
2021/04/12 03:23:03;;;;;;;1.85;0.10;;;;;;;-0.30;49.97;102064.50;5039114;28;20067;-68
2021/04/12 03:25:41;;;;;;;3.13;0.40;;;;;;;-0.42;51.26;102061.63;5039270;28;20092;-72
2021/04/12 03:28:25;;;;;;;4.32;0.20;;;;;;;-0.38;50.99;102073.72;5040347;28;20036;-66
2021/04/12 03:31:02;;;;;;;0.93;0.20;;;;;;;-0.33;51.05;102077.25;5040239;28;20029;-72
2021/04/12 03:33:34;;;;;;;1.65;0.32;;;;;;;-0.27;50.92;102081.69;5067049;28;20032;-69
2021/04/12 03:36:27;;;;;;;3.47;0.35;;;;;;;-0.33;51.35;102078.97;5041195;28;20516;-67
2021/04/12 03:39:14;;;;;;;5.32;0.13;;;;;;;-0.20;50.47;102074.16;5040085;28;20025;-71
2021/04/12 03:42:08;;;;;;;3.33;0.20;;;;;;;-0.22;50.47;102087.81;5041076;28;20127;-70
2021/04/12 03:45:01;;;;;;;7.15;0.32;;;;;;;-0.19;50.19;102087.88;5031204;28;20065;-70
2021/04/12 03:47:49;;;;;;;6.38;0.30;;;;;;;-0.46;51.14;102086.38;5041615;28;20028;-70
2021/04/12 03:50:33;;;;;;;3.35;0.60;;;;;;;-0.57;51.72;102090.38;5026877;28;20468;-69
2021/04/12 03:53:18;;;;;;;7.55;1.30;;;;;;;-0.85;52.15;102094.78;5043349;28;20017;-70
2021/04/12 03:56:00;;;;;;;1.27;0.20;;;;;;;-0.40;50.83;102083.94;5047689;28;20382;-70
2021/04/12 03:58:50;;;;;;;3.70;0.30;;;;;;;-0.30;50.83;102090.19;5041373;28;20420;-71
2021/04/12 04:01:54;;;;;;;1.08;0.20;;;;;;;-0.24;50.37;102090.31;5045241;28;20294;-70
2021/04/12 04:05:06;;;;;;;1.42;0.32;;;;;;;-0.32;50.67;102097.00;5045539;28;20036;-70
2021/04/12 04:07:35;;;;;;;;;;;;;;;-0.21;50.32;102100.69;5049184;28;20428;-70
2021/04/12 04:10:12;;;;;;;7.13;0.32;;;;;;;-0.26;50.06;102099.72;5042582;28;19957;-70
2021/04/12 04:13:03;;;;;;;2.85;0.17;;;;;;;-0.24;50.10;102105.75;5044402;28;20033;-70
2021/04/12 04:15:35;;;;;;;4.47;0.70;;;;;;;-0.51;51.13;102115.34;5043199;28;20052;-69
2021/04/12 04:18:45;;;;;;;5.03;2.08;;;;;;;-0.37;50.57;102121.69;5045631;28;20029;-70
2021/04/12 04:21:49;;;;;;;4.45;2.53;;;;;;;-0.38;50.65;102117.38;5045053;28;20108;-69
2021/04/12 04:24:44;;;;;;;3.08;0.50;;;;;;;-0.46;50.94;102106.94;5044683;28;20033;-67
2021/04/12 04:27:19;;;;;;;8.15;1.17;;;;;;;-0.44;50.97;102112.09;5044311;28;20554;-67
2021/04/12 04:30:01;;;;;;;5.65;0.52;;;;;;;-0.59;51.33;102118.56;5043397;28;20037;-75
2021/04/12 04:32:42;;;;;;;3.17;0.45;;;;;;;-0.53;50.98;102117.00;5058355;28;20037;-69
2021/04/12 04:35:17;;;;;;;2.30;0.40;;;;;;;-0.56;51.59;102116.06;5042605;28;20035;-69
2021/04/12 04:38:25;;;;;;;3.13;0.40;;;;;;;-0.53;51.40;102111.84;5042202;28;20060;-69
2021/04/12 04:40:56;;;;;;;3.90;0.63;;;;;;;-0.37;50.99;102116.53;5043855;28;20025;-69
2021/04/12 04:43:40;;;;;;;8.45;0.50;;;;;;;-0.32;51.14;102126.97;5042801;28;20084;-72
2021/04/12 04:46:33;;;;;;;2.75;0.40;;;;;;;-0.23;50.89;102122.06;5046025;28;20033;-68
2021/04/12 04:49:41;;;;;;;1.35;0.20;;;;;;;-0.17;51.04;102132.47;5044218;28;20073;-66
2021/04/12 04:52:18;;;;;;;3.85;0.52;;;;;;;-0.14;51.38;102143.69;5053452;28;20569;-66
2021/04/12 04:54:44;;;;;;;0.90;0.30;;;;;;;0.22;51.25;102141.97;5057750;28;20041;-66
2021/04/12 04:57:13;;;;;;;5.07;0.30;;;;;;;0.26;51.15;102138.66;5072794;28;20112;-66
2021/04/12 05:00:04;;;;;;;1.33;0.30;;;;;;;0.28;51.41;102137.84;5049233;28;20520;-66
2021/04/12 05:02:52;;;;;;;6.82;0.57;;;;;;;0.07;51.41;102152.75;5042701;28;20116;-68
2021/04/12 05:05:17;;;;;;;2.67;0.68;;;;;;;0.58;50.56;102144.50;5043837;28;20043;-66
2021/04/12 05:08:02;;;;;;;3.63;0.52;;;;;;;0.63;50.24;102148.03;5044312;28;20044;-66
2021/04/12 05:10:46;;;;;;;2.53;0.70;;;;;;;0.36;51.03;102150.88;5041769;28;20131;-66
2021/04/12 05:13:24;;;;;;;3.88;0.20;;;;;;;0.75;50.13;102149.13;5045151;28;20036;-66
2021/04/12 05:16:20;;;;;;;4.53;0.40;;;;;;;0.28;50.95;102163.56;5042067;28;20056;-66
2021/04/12 05:19:23;;;;;;;5.50;0.30;;;;;;;1.01;49.51;102166.00;5042289;28;20123;-65
2021/04/12 05:22:16;;;;;;;5.03;1.10;;;;;;;0.26;50.38;102165.22;5040447;28;20029;-66
2021/04/12 05:24:54;;;;;;;8.30;0.77;;;;;;;0.61;50.23;102165.19;5043726;28;20026;-66
2021/04/12 05:27:35;;;;;;;0.95;0.43;;;;;;;0.93;49.05;102162.41;5043048;28;20078;-66
2021/04/12 05:30:33;;;;;;;1.85;0.40;;;;;;;1.16;49.12;102168.03;5043237;28;20041;-66
2021/04/12 05:33:07;;;;;;;4.93;1.20;;;;;;;2.18;47.48;102165.59;5041262;28;20055;-66
2021/04/12 05:35:52;;;;;;;5.03;0.75;;;;;;;3.83;43.97;102160.75;5041735;28;20036;-66
2021/04/12 05:38:20;;;;;;;11.18;0.85;;;;;;;6.28;39.13;102166.03;5038223;28;20052;-66
2021/04/12 05:40:58;;;;;;;0.90;0.30;;;;;;;8.00;36.35;102176.47;5054271;28;20315;-66
2021/04/12 05:43:32;;;;;;;3.25;0.57;;;;;;;8.62;33.14;102175.00;5041550;28;20060;-66
2021/04/12 05:45:58;;;;;;;3.70;0.30;;;;;;;7.69;33.27;102181.91;5042186;28;20390;-66
2021/04/12 05:48:42;;;;;;;1.40;0.38;;;;;;;5.30;38.55;102197.03;5039110;28;20055;-68
2021/04/12 05:51:25;;;;;;;3.50;0.55;;;;;;;3.21;42.32;102204.88;5043205;28;20029;-66
2021/04/12 05:54:18;;;;;;;2.65;1.67;;;;;;;2.41;44.96;102196.88;5039243;28;20032;-66
2021/04/12 05:57:04;;;;;;;3.38;0.63;;;;;;;1.76;46.37;102202.69;5042485;28;20050;-66
2021/04/12 05:59:54;;;;;;;6.72;0.73;;;;;;;2.04;46.46;102198.00;5054225;28;20033;-66
2021/04/12 06:02:45;;;;;;;8.27;0.50;;;;;;;5.82;41.48;102193.69;5041435;28;20036;-66
2021/04/12 06:05:26;;;;;;;1.38;0.40;;;;;;;9.29;34.32;102196.81;5054052;28;20033;-66
2021/04/12 06:08:09;;;;;;;3.28;0.40;;;;;;;9.05;32.09;102184.09;5043112;28;20044;-66
2021/04/12 06:11:03;;;;;;;2.53;0.47;;;;;;;8.51;33.30;102182.06;5038473;28;20048;-66
2021/04/12 06:13:47;;;;;;;1.67;0.57;;;;;;;8.81;33.99;102191.34;5038470;28;20116;-66
2021/04/12 06:16:42;;;;;;;3.72;0.75;;;;;;;7.39;35.01;102202.03;5042421;28;20058;-66
2021/04/12 06:19:36;;;;;;;2.17;0.43;;;;;;;5.04;38.51;102209.91;5054517;28;20123;-66
2021/04/12 06:22:36;;;;;;;2.22;0.25;;;;;;;7.43;35.71;102208.09;5040040;28;20392;-66
2021/04/12 06:25:23;;;;;;;4.22;0.30;;;;;;;9.03;31.75;102202.41;5043384;28;20029;-67
2021/04/12 06:28:17;;;;;;;2.60;0.20;;;;;;;10.51;31.49;102198.38;5041151;28;20044;-66
2021/04/12 06:31:01;;;;;;;0.80;0.20;;;;;;;10.78;29.39;102198.75;5038996;28;20196;-66
2021/04/12 06:33:39;;;;;;;2.58;0.30;;;;;;;12.02;28.00;102200.41;5039150;28;20444;-66
2021/04/12 06:36:29;;;;;;;2.25;0.20;;;;;;;11.72;28.81;102200.22;5042837;28;20042;-66
2021/04/12 06:39:40;;;;;;;1.75;0.20;;;;;;;13.24;26.87;102204.06;5055843;28;20175;-66
2021/04/12 06:42:39;;;;;;;2.05;0.10;;;;;;;11.73;30.12;102201.97;5036101;28;20498;-66
2021/04/12 06:45:35;;;;;;;2.17;0.20;;;;;;;12.58;28.63;102205.94;5039992;28;20510;-66
2021/04/12 06:48:22;;;;;;;1.95;0.52;;;;;;;13.52;27.91;102216.38;5055707;28;20033;-66
2021/04/12 06:51:25;;;;;;;1.65;0.43;;;;;;;11.39;27.99;102217.56;5043390;28;20037;-66
2021/04/12 06:54:08;;;;;;;2.05;0.20;;;;;;;9.68;31.66;102231.09;5039788;28;20033;-67
2021/04/12 06:57:24;;;;;;;3.42;0.25;;;;;;;7.82;35.06;102227.81;5040837;28;20037;-66
2021/04/12 07:00:13;;;;;;;1.20;0.10;;;;;;;6.54;37.21;102234.38;5042309;28;20028;-67
2021/04/12 07:02:45;;;;;;;2.47;0.08;;;;;;;5.91;39.33;102235.22;5041565;28;20100;-67
2021/04/12 07:05:38;;;;;;;0.30;0.05;;;;;;;5.12;40.17;102228.91;5041157;28;20040;-66
2021/04/12 07:08:20;;;;;;;1.20;0.10;;;;;;;4.84;40.77;102228.75;5039759;28;20043;-66
2021/04/12 07:11:04;;;;;;;1.50;0.10;;;;;;;7.99;37.06;102230.31;5026131;28;20383;-66
2021/04/12 07:14:08;;;;;;;4.13;0.25;;;;;;;10.26;31.22;102225.84;5037627;28;20031;-66
2021/04/12 07:17:00;;;;;;;0.47;0.00;;;;;;;12.76;28.11;102232.56;5040785;28;20398;-67
2021/04/12 07:19:51;;;;;;;1.67;0.00;;;;;;;13.23;27.21;102233.88;5044730;28;20755;-67
2021/04/12 07:22:48;;;;;;;0.15;0.05;;;;;;;14.25;25.14;102223.63;5040358;28;20029;-67
2021/04/12 07:25:35;;;;;;;1.17;0.20;;;;;;;14.16;26.31;102229.19;5046173;28;20063;-67
2021/04/12 07:28:10;;;;;;;2.70;0.30;;;;;;;13.92;25.28;102229.13;5041607;28;20331;-67
2021/04/12 07:30:38;;;;;;;0.40;0.20;;;;;;;13.98;25.19;102235.94;5041933;28;20057;-68
2021/04/12 07:33:38;;;;;;;0.35;0.10;;;;;;;13.77;24.94;102240.13;5043280;28;20034;-69
2021/04/12 07:36:28;;;;;;;2.22;0.10;;;;;;;13.10;26.42;102241.22;5042140;28;20053;-67
2021/04/12 07:39:31;;;;;;;3.53;0.20;;;;;;;13.01;26.20;102238.88;5043005;28;20043;-68
2021/04/12 07:42:35;;;;;;;1.27;0.20;;;;;;;9.51;31.26;102246.13;5044191;28;20040;-67
2021/04/12 07:45:17;;;;;;;4.20;0.40;;;;;;;11.87;28.95;102236.56;5040367;28;20045;-67
2021/04/12 07:48:40;;;;;;;0.88;0.10;;;;;;;12.28;27.50;102236.44;5041104;28;20037;-67
2021/04/12 07:51:56;;;;;;;1.10;0.10;;;;;;;13.18;26.62;102250.63;5018424;28;20033;-67
2021/04/12 07:54:43;;;;;;;4.32;0.20;;;;;;;12.65;27.17;102245.97;4999194;28;20041;-68
2021/04/12 07:57:45;;;;;;;3.47;0.20;;;;;;;14.95;23.75;102248.41;5039940;28;20056;-67
2021/04/12 08:00:31;;;;;;;1.17;0.10;;;;;;;15.82;23.14;102252.09;5039900;28;20029;-68
2021/04/12 08:03:16;;;;;;;1.75;0.47;;;;;;;16.31;22.51;102250.09;5041800;28;20124;-67
2021/04/12 08:05:55;;;;;;;2.67;0.10;;;;;;;14.94;23.34;102258.06;5040355;28;20115;-67
2021/04/12 08:08:23;;;;;;;1.13;0.32;;;;;;;15.00;24.50;102264.88;5044622;28;20029;-67
2021/04/12 08:11:34;;;;;;;1.35;0.10;;;;;;;16.50;22.90;102266.00;5042124;28;20449;-68
2021/04/12 08:14:33;;;;;;;1.42;0.10;;;;;;;16.12;22.34;102270.25;5027027;28;20140;-67
2021/04/12 08:17:30;;;;;;;1.20;0.10;;;;;;;15.87;22.80;102265.09;5042103;28;20461;-67
2021/04/12 08:20:01;;;;;;;1.98;0.47;;;;;;;15.01;23.95;102263.94;5042987;28;20033;-68
2021/04/12 08:23:05;;;;;;;0.35;0.10;;;;;;;12.22;27.52;102279.41;5054414;28;20516;-67
2021/04/12 08:26:07;;;;;;;1.10;0.20;;;;;;;11.73;27.69;102284.91;5039677;28;20066;-67
2021/04/12 08:28:49;;;;;;;1.67;0.30;;;;;;;10.63;30.19;102284.44;5058126;28;20040;-68
2021/04/12 08:31:24;;;;;;;0.80;0.08;;;;;;;11.19;29.31;102283.41;5039157;28;20481;-67
2021/04/12 08:33:55;;;;;;;2.03;0.10;;;;;;;11.82;26.63;102269.00;5041621;28;20033;-68
2021/04/12 08:36:50;;;;;;;2.80;0.00;;;;;;;12.95;26.43;102280.19;5042662;28;20037;-67
2021/04/12 08:39:39;;;;;;;4.68;0.28;;;;;;;12.52;25.29;102278.69;5058067;28;20374;-67
2021/04/12 08:42:38;;;;;;;1.83;0.10;;;;;;;12.97;25.44;102281.84;5056909;28;20037;-67
2021/04/12 08:45:30;;;;;;;1.67;0.10;;;;;;;10.73;28.12;102286.91;5042117;28;20056;-67
2021/04/12 08:48:28;;;;;;;1.48;0.10;;;;;;;10.39;28.39;102292.69;5043583;28;20622;-67
2021/04/12 08:51:12;;;;;;;2.03;0.20;;;;;;;9.67;30.16;102292.00;5018582;28;20045;-69
2021/04/12 08:53:41;;;;;;;0.73;0.13;;;;;;;7.56;31.13;102293.03;5067662;22;20049;-71
2021/04/12 08:56:18;;;;;;;2.28;0.10;;;;;;;8.71;28.93;102291.38;5067403;28;20490;-70
2021/04/12 08:58:50;;;;;;;2.15;0.28;;;;;;;10.19;26.59;102288.69;5066910;28;20094;-70
2021/04/12 09:01:38;;;;;;;3.53;0.10;;;;;;;10.93;25.01;102282.19;5069314;28;20513;-69
2021/04/12 09:04:07;;;;;;;1.35;0.17;;;;;;;9.61;26.37;102289.50;5047744;28;20048;-69
2021/04/12 09:06:57;;;;;;;0.75;0.03;;;;;;;10.29;26.06;102284.16;5050236;28;20029;-70
2021/04/12 09:09:45;;;;;;;2.25;0.20;;;;;;;11.24;25.99;102295.53;5049853;28;20025;-70
2021/04/12 09:12:38;;;;;;;2.33;0.20;;;;;;;11.63;25.28;102294.72;5046290;28;20039;-71
2021/04/12 09:15:35;;;;;;;1.60;0.20;;;;;;;11.62;24.79;102298.22;5046905;28;20049;-71
2021/04/12 09:18:29;;;;;;;6.57;0.20;;;;;;;10.29;25.98;102309.44;5066596;28;20043;-70
2021/04/12 09:21:12;;;;;;;6.50;0.10;;;;;;;8.39;26.78;102310.75;5052352;28;20421;-70
2021/04/12 09:23:50;;;;;;;1.75;0.10;;;;;;;8.63;27.55;102319.22;5043196;28;20033;-69
2021/04/12 09:26:43;;;;;;;0.68;0.08;;;;;;;8.84;27.79;102315.59;5041454;28;20538;-70
2021/04/12 09:29:27;;;;;;;3.15;0.15;;;;;;;10.83;26.09;102309.41;5045974;28;20086;-70
2021/04/12 09:32:28;;;;;;;0.98;0.17;;;;;;;10.61;26.09;102311.50;5044365;28;20048;-71
2021/04/12 09:35:11;;;;;;;3.13;0.10;;;;;;;11.85;24.90;102310.84;5044192;28;20572;-72
2021/04/12 09:38:14;;;;;;;0.77;0.10;;;;;;;12.63;23.93;102310.72;5057889;28;20580;-70
2021/04/12 09:41:07;;;;;;;1.65;0.10;;;;;;;12.77;23.70;102303.38;5045747;28;20033;-70
2021/04/12 09:43:52;;;;;;;1.85;0.17;;;;;;;12.75;23.15;102310.44;5058936;28;20047;-70
2021/04/12 09:47:09;;;;;;;1.75;0.45;;;;;;;13.32;21.69;102316.75;5045089;28;20110;-71
2021/04/12 09:49:34;;;;;;;3.70;0.10;;;;;;;10.85;23.68;102323.31;5052061;28;20044;-71
2021/04/12 09:52:18;;;;;;;0.77;0.10;;;;;;;10.40;25.30;102325.81;5043456;28;20132;-70
2021/04/12 09:55:01;;;;;;;2.50;0.10;;;;;;;10.82;24.33;102331.22;5047247;28;20048;-71
2021/04/12 09:57:45;;;;;;;0.77;0.25;;;;;;;9.95;26.77;102347.38;5064783;28;20041;-72
2021/04/12 10:00:56;;;;;;;1.05;0.10;;;;;;;10.57;26.73;102349.03;5046439;28;20029;-70
2021/04/12 10:03:56;;;;;;;2.97;0.20;;;;;;;9.44;28.08;102343.66;5029419;28;20041;-70
2021/04/12 10:06:36;;;;;;;2.53;0.10;;;;;;;9.45;25.42;102340.16;5047393;28;20033;-71
2021/04/12 10:09:17;;;;;;;1.92;0.10;;;;;;;9.18;27.31;102342.19;5031198;28;20037;-71
2021/04/12 10:11:56;;;;;;;1.38;0.10;;;;;;;9.39;26.88;102341.97;5047634;28;20040;-71
2021/04/12 10:14:29;;;;;;;1.42;0.28;;;;;;;10.60;27.44;102347.25;5048863;28;20036;-71
2021/04/12 10:17:04;;;;;;;4.90;0.10;;;;;;;10.53;26.12;102352.63;5044129;28;20517;-71
2021/04/12 10:19:50;;;;;;;2.47;0.20;;;;;;;8.83;27.83;102347.75;5047243;28;20033;-70
2021/04/12 10:22:25;;;;;;;2.03;0.85;;;;;;;10.55;26.85;102354.31;5045823;28;20025;-69
2021/04/12 10:24:57;;;;;;;0.85;0.25;;;;;;;9.22;26.27;102350.84;5029539;28;20052;-69
2021/04/12 10:27:46;;;;;;;2.92;0.10;;;;;;;8.41;28.56;102368.06;5045048;28;20017;-70
2021/04/12 10:30:34;;;;;;;2.00;0.10;;;;;;;8.64;27.87;102366.13;5046724;28;20056;-70
2021/04/12 10:33:07;;;;;;;2.67;0.30;;;;;;;9.57;27.54;102373.94;5060694;28;20037;-69
2021/04/12 10:35:39;;;;;;;2.38;0.32;;;;;;;7.77;28.19;102377.09;5024681;28;20041;-69
2021/04/12 10:38:14;;;;;;;3.30;0.15;;;;;;;5.87;30.79;102386.56;5043826;28;20785;-69
2021/04/12 10:40:57;;;;;;;3.25;1.20;;;;;;;6.88;30.90;102381.56;5044024;28;20115;-70
2021/04/12 10:43:28;;;;;;;0.20;0.00;;;;;;;7.81;29.99;102377.06;5026043;28;20482;-70
2021/04/12 10:45:58;;;;;;;1.42;0.15;;;;;;;7.45;29.10;102371.09;5047511;28;20093;-70
2021/04/12 10:48:58;;;;;;;3.22;0.10;;;;;;;8.91;26.97;102365.03;5045426;28;20497;-71
2021/04/12 10:51:32;;;;;;;0.75;0.00;;;;;;;8.96;26.86;102365.00;5047832;28;20068;-70
2021/04/12 10:54:04;;;;;;;0.20;0.00;;;;;;;10.10;25.75;102364.59;5044211;28;20045;-70
2021/04/12 10:56:35;;;;;;;1.25;0.10;;;;;;;9.62;25.77;102353.84;5043294;28;20124;-70
2021/04/12 10:59:04;;;;;;;0.95;0.03;;;;;;;10.80;25.94;102341.66;5042190;28;20083;-70
2021/04/12 11:01:35;;;;;;;2.78;0.10;;;;;;;11.80;24.47;102349.41;5046145;28;20029;-69
2021/04/12 11:04:07;;;;;;;1.00;0.10;;;;;;;9.91;24.19;102360.50;5046422;28;20040;-71
2021/04/12 11:06:54;;;;;;;0.65;0.00;;;;;;;8.73;26.04;102357.41;5047077;28;20055;-70
2021/04/12 11:09:47;;;;;;;1.15;0.00;;;;;;;10.61;24.48;102354.19;5044391;28;20056;-69
2021/04/12 11:12:27;;;;;;;2.63;0.20;;;;;;;11.41;24.18;102347.53;5044645;28;20061;-70
2021/04/12 11:14:52;;;;;;;2.40;0.10;;;;;;;9.15;26.21;102363.09;5042715;28;20450;-70
2021/04/12 11:17:32;;;;;;;2.25;0.17;;;;;;;10.15;26.93;102372.34;5045549;28;20091;-70
2021/04/12 11:20:18;;;;;;;4.75;0.30;;;;;;;10.40;26.89;102370.22;5046113;28;20040;-71
2021/04/12 11:22:57;;;;;;;1.77;0.10;;;;;;;10.20;27.63;102374.00;5058313;28;20041;-71
2021/04/12 11:25:50;;;;;;;3.58;0.85;;;;;;;10.21;28.92;102369.63;5043748;28;20044;-71
2021/04/12 11:28:27;;;;;;;0.10;0.00;;;;;;;9.38;28.34;102361.09;5059275;28;20101;-71
2021/04/12 11:31:23;;;;;;;3.60;0.73;;;;;;;8.73;28.79;102362.63;5041949;28;20025;-70
2021/04/12 11:34:00;;;;;;;1.00;0.00;;;;;;;8.66;27.96;102372.19;5042765;28;20029;-70
2021/04/12 11:36:45;;;;;;;0.95;0.40;;;;;;;9.02;27.82;102366.69;5043757;28;20509;-70
2021/04/12 11:39:29;;;;;;;0.85;0.03;;;;;;;9.19;27.87;102365.66;5058550;28;20057;-72
2021/04/12 11:41:59;;;;;;;1.55;0.00;;;;;;;9.65;26.82;102364.25;5044393;28;20048;-70
2021/04/12 11:44:35;;;;;;;0.10;0.00;;;;;;;9.37;26.94;102375.03;5045582;28;20055;-70
2021/04/12 11:47:24;;;;;;;0.20;0.08;;;;;;;7.81;28.68;102379.66;5043714;28;20033;-72
2021/04/12 11:50:13;;;;;;;1.52;0.20;;;;;;;6.68;29.66;102384.16;5045138;28;20032;-71
2021/04/12 11:52:51;;;;;;;0.70;0.00;;;;;;;6.72;28.61;102366.88;5043291;28;20112;-70
2021/04/12 11:55:29;;;;;;;0.57;0.03;;;;;;;6.35;29.54;102387.63;5044763;28;20532;-70
2021/04/12 11:58:19;;;;;;;1.35;0.10;;;;;;;7.00;29.46;102379.84;5041713;28;20240;-69
2021/04/12 12:00:51;;;;;;;0.40;0.10;;;;;;;7.29;28.99;102390.22;5048663;28;20045;-71
2021/04/12 12:03:41;;;;;;;2.55;0.20;;;;;;;7.19;29.83;102383.28;5048727;28;20473;-70
2021/04/12 12:06:17;;;;;;;1.83;0.20;;;;;;;8.30;29.15;102386.34;5049539;28;20047;-70
2021/04/12 12:08:48;;;;;;;0.82;0.00;;;;;;;7.57;30.23;102393.63;5062204;28;20037;-70
2021/04/12 12:11:39;;;;;;;3.20;0.10;;;;;;;7.42;30.72;102394.53;5047010;28;20688;-70
2021/04/12 12:14:13;;;;;;;0.30;0.00;;;;;;;7.74;30.62;102397.03;5043788;28;20037;-70
2021/04/12 12:16:43;;;;;;;0.10;0.00;;;;;;;8.34;29.93;102398.50;5046264;28;20033;-69
2021/04/12 12:19:30;;;;;;;0.65;0.00;;;;;;;7.73;29.17;102402.25;5044548;28;20048;-70
2021/04/12 12:22:23;;;;;;;2.83;0.55;;;;;;;10.46;26.54;102398.91;5044638;28;20063;-70
2021/04/12 12:25:33;;;;;;;0.25;0.00;;;;;;;10.50;25.90;102390.09;5046369;28;20040;-70
2021/04/12 12:28:37;;;;;;;2.92;0.10;;;;;;;10.19;25.13;102392.31;5035356;28;20036;-70
2021/04/12 12:31:34;;;;;;;0.38;0.10;;;;;;;9.23;26.05;102391.69;5038100;28;22858;-71
2021/04/12 12:34:20;;;;;;;0.20;0.10;;;;;;;8.19;27.27;102399.44;5046680;28;20017;-70
2021/04/12 12:37:04;;;;;;;0.17;0.05;;;;;;;7.56;29.38;102414.44;5045349;28;20098;-70
2021/04/12 12:39:36;;;;;;;0.28;0.08;;;;;;;7.23;30.45;102416.22;5062882;28;20095;-71
2021/04/12 12:42:19;;;;;;;2.10;0.10;;;;;;;7.65;30.63;102422.25;5044735;28;20102;-71
2021/04/12 12:44:46;;;;;;;0.77;0.05;;;;;;;8.09;30.00;102424.69;5046435;28;20041;-70
2021/04/12 12:47:15;;;;;;;0.30;0.00;;;;;;;8.21;28.23;102422.88;5059468;28;20040;-69
2021/04/12 12:49:49;;;;;;;0.95;0.00;;;;;;;9.96;26.79;102417.00;5046458;28;20598;-70
2021/04/12 12:52:29;;;;;;;0.88;0.00;;;;;;;9.73;27.79;102421.63;5041625;28;20037;-70
2021/04/12 12:54:59;;;;;;;0.95;0.10;;;;;;;8.95;27.39;102418.06;5046313;28;20104;-69